sensor_id;sensor_type;location;lat;lon;timestamp;temperature;humidity
20911;DHT22;10615;42.702;23.314;2023-02-15T00:00:35;3.60;91.60
20911;DHT22;10615;42.702;23.314;2023-02-15T00:01:36;3.60;91.60
20911;DHT22;10615;42.702;23.314;2023-02-15T00:02:38;3.60;91.60
20911;DHT22;10615;42.702;23.314;2023-02-15T00:03:38;3.60;91.60
20911;DHT22;10615;42.702;23.314;2023-02-15T00:04:39;3.60;91.70
20911;DHT22;10615;42.702;23.314;2023-02-15T00:05:49;3.50;91.70
20911;DHT22;10615;42.702;23.314;2023-02-15T00:06:50;3.50;91.70
20911;DHT22;10615;42.702;23.314;2023-02-15T00:07:50;3.50;91.80
20911;DHT22;10615;42.702;23.314;2023-02-15T00:08:51;3.50;91.80
20911;DHT22;10615;42.702;23.314;2023-02-15T00:09:52;3.50;91.80
20911;DHT22;10615;42.702;23.314;2023-02-15T00:10:53;3.50;91.90
20911;DHT22;10615;42.702;23.314;2023-02-15T00:11:53;3.60;91.90
20911;DHT22;10615;42.702;23.314;2023-02-15T00:12:54;3.60;92.00
20911;DHT22;10615;42.702;23.314;2023-02-15T00:13:55;3.50;92.00
20911;DHT22;10615;42.702;23.314;2023-02-15T00:14:55;3.50;92.00
20911;DHT22;10615;42.702;23.314;2023-02-15T00:16:01;3.50;92.00
20911;DHT22;10615;42.702;23.314;2023-02-15T00:17:02;3.60;92.10
20911;DHT22;10615;42.702;23.314;2023-02-15T00:18:02;3.50;92.10
20911;DHT22;10615;42.702;23.314;2023-02-15T00:19:04;3.50;92.10
20911;DHT22;10615;42.702;23.314;2023-02-15T00:20:05;3.60;92.20
20911;DHT22;10615;42.702;23.314;2023-02-15T00:21:09;3.60;92.20
20911;DHT22;10615;42.702;23.314;2023-02-15T00:22:10;3.50;92.20
20911;DHT22;10615;42.702;23.314;2023-02-15T00:23:10;3.50;92.30
20911;DHT22;10615;42.702;23.314;2023-02-15T00:24:12;3.60;92.30
20911;DHT22;10615;42.702;23.314;2023-02-15T00:25:13;3.50;92.30
20911;DHT22;10615;42.702;23.314;2023-02-15T00:26:13;3.50;92.30
20911;DHT22;10615;42.702;23.314;2023-02-15T00:27:14;3.50;92.40
20911;DHT22;10615;42.702;23.314;2023-02-15T00:28:15;3.60;92.40
20911;DHT22;10615;42.702;23.314;2023-02-15T00:29:16;3.50;92.40
20911;DHT22;10615;42.702;23.314;2023-02-15T00:30:17;3.50;92.40
20911;DHT22;10615;42.702;23.314;2023-02-15T00:31:18;3.50;92.40
20911;DHT22;10615;42.702;23.314;2023-02-15T00:32:18;3.50;92.40
20911;DHT22;10615;42.702;23.314;2023-02-15T00:33:19;3.50;92.80
20911;DHT22;10615;42.702;23.314;2023-02-15T00:34:25;3.50;92.50
20911;DHT22;10615;42.702;23.314;2023-02-15T00:35:26;3.50;92.50
20911;DHT22;10615;42.702;23.314;2023-02-15T00:36:27;3.50;92.50
20911;DHT22;10615;42.702;23.314;2023-02-15T00:37:27;3.50;92.50
20911;DHT22;10615;42.702;23.314;2023-02-15T00:38:28;3.50;92.50
20911;DHT22;10615;42.702;23.314;2023-02-15T00:39:29;3.50;92.50
20911;DHT22;10615;42.702;23.314;2023-02-15T00:40:30;3.40;92.50
20911;DHT22;10615;42.702;23.314;2023-02-15T00:41:33;3.50;92.60
20911;DHT22;10615;42.702;23.314;2023-02-15T00:42:34;3.40;92.70
20911;DHT22;10615;42.702;23.314;2023-02-15T00:43:35;3.50;92.80
20911;DHT22;10615;42.702;23.314;2023-02-15T00:44:36;3.50;92.80
20911;DHT22;10615;42.702;23.314;2023-02-15T00:45:37;3.40;92.80
20911;DHT22;10615;42.702;23.314;2023-02-15T00:46:37;3.50;92.80
20911;DHT22;10615;42.702;23.314;2023-02-15T00:47:38;3.40;92.80
20911;DHT22;10615;42.702;23.314;2023-02-15T00:48:39;3.50;92.90
20911;DHT22;10615;42.702;23.314;2023-02-15T00:49:39;3.40;92.80
20911;DHT22;10615;42.702;23.314;2023-02-15T00:50:40;3.50;92.90
20911;DHT22;10615;42.702;23.314;2023-02-15T00:51:41;3.50;92.90
20911;DHT22;10615;42.702;23.314;2023-02-15T00:52:42;3.50;92.90
20911;DHT22;10615;42.702;23.314;2023-02-15T00:53:43;3.50;92.90
20911;DHT22;10615;42.702;23.314;2023-02-15T00:54:46;3.50;92.90
20911;DHT22;10615;42.702;23.314;2023-02-15T00:55:47;3.50;93.00
20911;DHT22;10615;42.702;23.314;2023-02-15T00:56:48;3.50;93.00
20911;DHT22;10615;42.702;23.314;2023-02-15T00:57:49;3.50;92.90
20911;DHT22;10615;42.702;23.314;2023-02-15T00:58:50;3.50;92.90
20911;DHT22;10615;42.702;23.314;2023-02-15T00:59:50;3.50;92.90
20911;DHT22;10615;42.702;23.314;2023-02-15T01:00:52;3.50;92.90
20911;DHT22;10615;42.702;23.314;2023-02-15T01:01:52;3.40;92.90
20911;DHT22;10615;42.702;23.314;2023-02-15T01:02:53;3.50;93.00
20911;DHT22;10615;42.702;23.314;2023-02-15T01:03:54;3.40;92.90
20911;DHT22;10615;42.702;23.314;2023-02-15T01:04:54;3.50;92.90
20911;DHT22;10615;42.702;23.314;2023-02-15T01:05:55;3.50;93.00
20911;DHT22;10615;42.702;23.314;2023-02-15T01:06:55;3.40;92.90
20911;DHT22;10615;42.702;23.314;2023-02-15T01:07:57;3.50;93.00
20911;DHT22;10615;42.702;23.314;2023-02-15T01:08:58;3.40;93.00
20911;DHT22;10615;42.702;23.314;2023-02-15T01:09:58;3.40;93.10
20911;DHT22;10615;42.702;23.314;2023-02-15T01:11:11;3.40;93.10
20911;DHT22;10615;42.702;23.314;2023-02-15T01:12:11;3.40;93.10
20911;DHT22;10615;42.702;23.314;2023-02-15T01:13:14;3.40;93.20
20911;DHT22;10615;42.702;23.314;2023-02-15T01:14:15;3.40;93.20
20911;DHT22;10615;42.702;23.314;2023-02-15T01:15:15;3.40;93.20
20911;DHT22;10615;42.702;23.314;2023-02-15T01:16:17;3.40;93.20
20911;DHT22;10615;42.702;23.314;2023-02-15T01:17:17;3.40;93.30
20911;DHT22;10615;42.702;23.314;2023-02-15T01:18:18;3.40;93.30
20911;DHT22;10615;42.702;23.314;2023-02-15T01:19:19;3.40;93.30
20911;DHT22;10615;42.702;23.314;2023-02-15T01:20:24;3.40;93.40
20911;DHT22;10615;42.702;23.314;2023-02-15T01:21:25;3.30;93.40
20911;DHT22;10615;42.702;23.314;2023-02-15T01:22:26;3.30;93.40
20911;DHT22;10615;42.702;23.314;2023-02-15T01:23:27;3.30;93.40
20911;DHT22;10615;42.702;23.314;2023-02-15T01:24:27;3.30;93.40
20911;DHT22;10615;42.702;23.314;2023-02-15T01:25:28;3.30;93.40
20911;DHT22;10615;42.702;23.314;2023-02-15T01:26:29;3.40;93.40
20911;DHT22;10615;42.702;23.314;2023-02-15T01:27:29;3.30;93.80
20911;DHT22;10615;42.702;23.314;2023-02-15T01:28:33;3.30;93.40
20911;DHT22;10615;42.702;23.314;2023-02-15T01:29:33;3.30;93.40
20911;DHT22;10615;42.702;23.314;2023-02-15T01:30:34;3.30;93.50
20911;DHT22;10615;42.702;23.314;2023-02-15T01:31:35;3.30;93.50
20911;DHT22;10615;42.702;23.314;2023-02-15T01:32:35;3.30;93.60
20911;DHT22;10615;42.702;23.314;2023-02-15T01:33:36;3.30;93.50
20911;DHT22;10615;42.702;23.314;2023-02-15T01:34:37;3.30;93.50
20911;DHT22;10615;42.702;23.314;2023-02-15T01:35:38;3.30;93.50
20911;DHT22;10615;42.702;23.314;2023-02-15T01:36:38;3.20;93.60
20911;DHT22;10615;42.702;23.314;2023-02-15T01:37:39;3.20;93.70
20911;DHT22;10615;42.702;23.314;2023-02-15T01:38:40;3.30;93.90
20911;DHT22;10615;42.702;23.314;2023-02-15T01:39:40;3.20;93.90
20911;DHT22;10615;42.702;23.314;2023-02-15T01:40:41;3.30;94.00
20911;DHT22;10615;42.702;23.314;2023-02-15T01:41:42;3.30;94.10
20911;DHT22;10615;42.702;23.314;2023-02-15T01:42:43;3.30;94.10
20911;DHT22;10615;42.702;23.314;2023-02-15T01:43:50;3.30;94.10
20911;DHT22;10615;42.702;23.314;2023-02-15T01:45:03;3.30;94.10
20911;DHT22;10615;42.702;23.314;2023-02-15T01:46:04;3.30;94.10
20911;DHT22;10615;42.702;23.314;2023-02-15T01:47:05;3.30;94.20
20911;DHT22;10615;42.702;23.314;2023-02-15T01:49:15;3.20;94.10
20911;DHT22;10615;42.702;23.314;2023-02-15T01:51:27;3.20;94.30
20911;DHT22;10615;42.702;23.314;2023-02-15T01:52:29;3.20;94.30
20911;DHT22;10615;42.702;23.314;2023-02-15T01:53:38;3.20;94.40
20911;DHT22;10615;42.702;23.314;2023-02-15T01:54:41;3.20;94.50
20911;DHT22;10615;42.702;23.314;2023-02-15T01:56:09;3.20;94.50
20911;DHT22;10615;42.702;23.314;2023-02-15T01:57:14;3.20;94.60
20911;DHT22;10615;42.702;23.314;2023-02-15T01:58:16;3.20;94.70
20911;DHT22;10615;42.702;23.314;2023-02-15T01:59:20;3.20;94.70
20911;DHT22;10615;42.702;23.314;2023-02-15T02:00:22;3.20;94.70
20911;DHT22;10615;42.702;23.314;2023-02-15T02:01:24;3.20;94.80
20911;DHT22;10615;42.702;23.314;2023-02-15T02:02:27;3.20;94.90
20911;DHT22;10615;42.702;23.314;2023-02-15T02:04:59;3.20;95.00
20911;DHT22;10615;42.702;23.314;2023-02-15T02:06:00;3.20;95.00
20911;DHT22;10615;42.702;23.314;2023-02-15T02:07:01;3.20;95.00
20911;DHT22;10615;42.702;23.314;2023-02-15T02:08:03;3.20;95.00
20911;DHT22;10615;42.702;23.314;2023-02-15T02:09:04;3.20;95.00
20911;DHT22;10615;42.702;23.314;2023-02-15T02:10:06;3.20;95.10
20911;DHT22;10615;42.702;23.314;2023-02-15T02:11:12;3.20;95.10
20911;DHT22;10615;42.702;23.314;2023-02-15T02:12:13;3.20;95.20
20911;DHT22;10615;42.702;23.314;2023-02-15T02:13:14;3.20;95.20
20911;DHT22;10615;42.702;23.314;2023-02-15T02:14:15;3.20;95.20
20911;DHT22;10615;42.702;23.314;2023-02-15T02:15:17;3.20;95.30
20911;DHT22;10615;42.702;23.314;2023-02-15T02:25:12;3.20;95.50
20911;DHT22;10615;42.702;23.314;2023-02-15T02:26:47;3.20;95.50
20911;DHT22;10615;42.702;23.314;2023-02-15T02:30:24;3.20;95.50
20911;DHT22;10615;42.702;23.314;2023-02-15T02:35:47;3.10;95.70
20911;DHT22;10615;42.702;23.314;2023-02-15T02:39:51;3.20;95.80
20911;DHT22;10615;42.702;23.314;2023-02-15T02:42:21;3.10;95.90
20911;DHT22;10615;42.702;23.314;2023-02-15T02:45:06;3.10;96.00
20911;DHT22;10615;42.702;23.314;2023-02-15T02:48:25;3.20;96.20
20911;DHT22;10615;42.702;23.314;2023-02-15T02:49:39;3.20;96.10
20911;DHT22;10615;42.702;23.314;2023-02-15T02:50:41;3.20;96.10
20911;DHT22;10615;42.702;23.314;2023-02-15T02:51:42;3.20;96.10
20911;DHT22;10615;42.702;23.314;2023-02-15T02:52:43;3.20;96.10
20911;DHT22;10615;42.702;23.314;2023-02-15T02:53:44;3.20;96.20
20911;DHT22;10615;42.702;23.314;2023-02-15T02:54:45;3.20;96.30
20911;DHT22;10615;42.702;23.314;2023-02-15T02:55:49;3.20;96.30
20911;DHT22;10615;42.702;23.314;2023-02-15T02:56:51;3.20;96.40
20911;DHT22;10615;42.702;23.314;2023-02-15T02:58:14;3.20;96.50
20911;DHT22;10615;42.702;23.314;2023-02-15T02:59:25;3.20;96.50
20911;DHT22;10615;42.702;23.314;2023-02-15T03:00:28;3.20;96.50
20911;DHT22;10615;42.702;23.314;2023-02-15T03:01:50;3.30;96.60
20911;DHT22;10615;42.702;23.314;2023-02-15T03:03:00;3.30;96.60
20911;DHT22;10615;42.702;23.314;2023-02-15T03:04:16;3.30;96.50
20911;DHT22;10615;42.702;23.314;2023-02-15T03:05:21;3.30;96.50
20911;DHT22;10615;42.702;23.314;2023-02-15T03:06:37;3.30;96.50
20911;DHT22;10615;42.702;23.314;2023-02-15T03:07:41;3.30;96.50
20911;DHT22;10615;42.702;23.314;2023-02-15T03:08:46;3.30;96.50
20911;DHT22;10615;42.702;23.314;2023-02-15T03:09:53;3.30;96.50
20911;DHT22;10615;42.702;23.314;2023-02-15T03:10:57;3.30;96.50
20911;DHT22;10615;42.702;23.314;2023-02-15T03:11:58;3.30;96.60
20911;DHT22;10615;42.702;23.314;2023-02-15T03:12:59;3.30;96.60
20911;DHT22;10615;42.702;23.314;2023-02-15T03:14:00;3.40;96.70
20911;DHT22;10615;42.702;23.314;2023-02-15T03:15:05;3.40;96.70
20911;DHT22;10615;42.702;23.314;2023-02-15T03:16:09;3.30;97.00
20911;DHT22;10615;42.702;23.314;2023-02-15T03:17:32;3.40;96.70
20911;DHT22;10615;42.702;23.314;2023-02-15T03:18:58;3.40;96.80
20911;DHT22;10615;42.702;23.314;2023-02-15T03:20:10;3.40;96.80
20911;DHT22;10615;42.702;23.314;2023-02-15T03:21:12;3.40;96.80
20911;DHT22;10615;42.702;23.314;2023-02-15T03:22:30;3.40;96.80
20911;DHT22;10615;42.702;23.314;2023-02-15T03:23:32;3.40;96.80
20911;DHT22;10615;42.702;23.314;2023-02-15T03:24:37;3.50;96.80
20911;DHT22;10615;42.702;23.314;2023-02-15T03:25:42;3.50;96.80
20911;DHT22;10615;42.702;23.314;2023-02-15T03:26:46;3.50;96.80
20911;DHT22;10615;42.702;23.314;2023-02-15T03:28:16;3.50;96.70
20911;DHT22;10615;42.702;23.314;2023-02-15T03:29:19;3.50;96.70
20911;DHT22;10615;42.702;23.314;2023-02-15T03:30:22;3.50;96.70
20911;DHT22;10615;42.702;23.314;2023-02-15T03:31:26;3.50;96.60
20911;DHT22;10615;42.702;23.314;2023-02-15T03:32:30;3.50;96.60
20911;DHT22;10615;42.702;23.314;2023-02-15T03:33:33;3.50;96.70
20911;DHT22;10615;42.702;23.314;2023-02-15T03:34:36;3.50;96.70
20911;DHT22;10615;42.702;23.314;2023-02-15T03:35:53;3.50;96.80
20911;DHT22;10615;42.702;23.314;2023-02-15T03:37:04;3.50;96.80
20911;DHT22;10615;42.702;23.314;2023-02-15T03:38:07;3.50;96.80
20911;DHT22;10615;42.702;23.314;2023-02-15T03:40:57;3.50;96.90
20911;DHT22;10615;42.702;23.314;2023-02-15T03:42:29;3.50;96.90
20911;DHT22;10615;42.702;23.314;2023-02-15T03:44:03;3.60;96.90
20911;DHT22;10615;42.702;23.314;2023-02-15T03:45:17;3.50;96.90
20911;DHT22;10615;42.702;23.314;2023-02-15T03:46:28;3.50;96.90
20911;DHT22;10615;42.702;23.314;2023-02-15T03:47:37;3.50;97.00
20911;DHT22;10615;42.702;23.314;2023-02-15T03:48:47;3.50;97.00
20911;DHT22;10615;42.702;23.314;2023-02-15T03:51:05;3.60;97.20
20911;DHT22;10615;42.702;23.314;2023-02-15T03:52:27;3.60;97.20
20911;DHT22;10615;42.702;23.314;2023-02-15T03:53:29;3.60;97.20
20911;DHT22;10615;42.702;23.314;2023-02-15T03:54:31;3.60;97.20
20911;DHT22;10615;42.702;23.314;2023-02-15T03:55:49;3.60;97.20
20911;DHT22;10615;42.702;23.314;2023-02-15T03:56:50;3.60;97.10
20911;DHT22;10615;42.702;23.314;2023-02-15T03:58:11;3.60;97.20
20911;DHT22;10615;42.702;23.314;2023-02-15T03:59:30;3.60;97.30
20911;DHT22;10615;42.702;23.314;2023-02-15T04:00:58;3.60;97.40
20911;DHT22;10615;42.702;23.314;2023-02-15T04:02:24;3.60;97.40
20911;DHT22;10615;42.702;23.314;2023-02-15T04:03:39;3.60;97.40
20911;DHT22;10615;42.702;23.314;2023-02-15T04:04:45;3.60;97.50
20911;DHT22;10615;42.702;23.314;2023-02-15T04:05:46;3.70;97.50
20911;DHT22;10615;42.702;23.314;2023-02-15T04:06:46;3.70;97.50
20911;DHT22;10615;42.702;23.314;2023-02-15T04:07:47;3.70;97.50
20911;DHT22;10615;42.702;23.314;2023-02-15T04:08:48;3.70;97.50
20911;DHT22;10615;42.702;23.314;2023-02-15T04:10:07;3.70;97.40
20911;DHT22;10615;42.702;23.314;2023-02-15T04:11:26;3.70;97.40
20911;DHT22;10615;42.702;23.314;2023-02-15T04:12:26;3.70;97.40
20911;DHT22;10615;42.702;23.314;2023-02-15T04:13:31;3.70;97.40
20911;DHT22;10615;42.702;23.314;2023-02-15T04:14:33;3.70;97.40
20911;DHT22;10615;42.702;23.314;2023-02-15T04:15:53;3.70;97.40
20911;DHT22;10615;42.702;23.314;2023-02-15T04:17:07;3.70;97.30
20911;DHT22;10615;42.702;23.314;2023-02-15T04:18:08;3.70;97.30
20911;DHT22;10615;42.702;23.314;2023-02-15T04:19:09;3.70;97.30
20911;DHT22;10615;42.702;23.314;2023-02-15T04:20:28;3.70;97.40
20911;DHT22;10615;42.702;23.314;2023-02-15T04:21:47;3.80;97.40
20911;DHT22;10615;42.702;23.314;2023-02-15T04:23:07;3.80;97.40
20911;DHT22;10615;42.702;23.314;2023-02-15T04:24:26;3.80;97.30
20911;DHT22;10615;42.702;23.314;2023-02-15T04:25:45;3.70;97.30
20911;DHT22;10615;42.702;23.314;2023-02-15T04:26:46;3.70;97.30
20911;DHT22;10615;42.702;23.314;2023-02-15T04:27:52;3.80;97.30
20911;DHT22;10615;42.702;23.314;2023-02-15T04:28:53;3.70;97.30
20911;DHT22;10615;42.702;23.314;2023-02-15T04:29:54;3.80;97.40
20911;DHT22;10615;42.702;23.314;2023-02-15T04:30:55;3.80;97.40
20911;DHT22;10615;42.702;23.314;2023-02-15T04:31:57;3.80;97.40
20911;DHT22;10615;42.702;23.314;2023-02-15T04:32:58;3.80;97.50
20911;DHT22;10615;42.702;23.314;2023-02-15T04:33:58;3.80;97.50
20911;DHT22;10615;42.702;23.314;2023-02-15T04:34:59;3.80;97.50
20911;DHT22;10615;42.702;23.314;2023-02-15T04:36:00;3.80;97.50
20911;DHT22;10615;42.702;23.314;2023-02-15T04:37:00;3.80;97.50
20911;DHT22;10615;42.702;23.314;2023-02-15T04:38:01;3.80;97.40
20911;DHT22;10615;42.702;23.314;2023-02-15T04:39:02;3.80;97.40
20911;DHT22;10615;42.702;23.314;2023-02-15T04:40:04;3.80;97.30
20911;DHT22;10615;42.702;23.314;2023-02-15T04:41:05;3.80;97.30
20911;DHT22;10615;42.702;23.314;2023-02-15T04:42:06;3.80;97.30
20911;DHT22;10615;42.702;23.314;2023-02-15T04:43:06;3.80;97.30
20911;DHT22;10615;42.702;23.314;2023-02-15T04:44:07;3.90;97.30
20911;DHT22;10615;42.702;23.314;2023-02-15T04:45:08;3.80;97.30
20911;DHT22;10615;42.702;23.314;2023-02-15T04:46:08;3.80;97.30
20911;DHT22;10615;42.702;23.314;2023-02-15T04:47:09;3.80;97.40
20911;DHT22;10615;42.702;23.314;2023-02-15T04:48:10;3.80;97.40
20911;DHT22;10615;42.702;23.314;2023-02-15T04:49:10;3.80;97.40
20911;DHT22;10615;42.702;23.314;2023-02-15T04:50:11;3.80;97.40
20911;DHT22;10615;42.702;23.314;2023-02-15T04:51:12;3.80;97.40
20911;DHT22;10615;42.702;23.314;2023-02-15T04:52:13;3.80;97.40
20911;DHT22;10615;42.702;23.314;2023-02-15T04:53:13;3.90;97.40
20911;DHT22;10615;42.702;23.314;2023-02-15T04:54:14;3.90;97.40
20911;DHT22;10615;42.702;23.314;2023-02-15T04:55:15;3.90;97.50
20911;DHT22;10615;42.702;23.314;2023-02-15T04:56:15;3.90;97.50
20911;DHT22;10615;42.702;23.314;2023-02-15T04:57:16;3.90;97.50
20911;DHT22;10615;42.702;23.314;2023-02-15T04:58:16;3.90;97.50
20911;DHT22;10615;42.702;23.314;2023-02-15T04:59:17;3.90;97.40
20911;DHT22;10615;42.702;23.314;2023-02-15T05:00:18;3.90;97.40
20911;DHT22;10615;42.702;23.314;2023-02-15T05:01:19;3.90;97.40
20911;DHT22;10615;42.702;23.314;2023-02-15T05:02:19;3.90;97.40
20911;DHT22;10615;42.702;23.314;2023-02-15T05:03:20;3.90;97.80
20911;DHT22;10615;42.702;23.314;2023-02-15T05:04:21;3.90;97.40
20911;DHT22;10615;42.702;23.314;2023-02-15T05:05:22;3.90;97.40
20911;DHT22;10615;42.702;23.314;2023-02-15T05:06:22;3.90;97.40
20911;DHT22;10615;42.702;23.314;2023-02-15T05:07:23;3.90;97.30
20911;DHT22;10615;42.702;23.314;2023-02-15T05:08:24;3.90;97.30
20911;DHT22;10615;42.702;23.314;2023-02-15T05:09:24;3.90;97.30
20911;DHT22;10615;42.702;23.314;2023-02-15T05:10:25;3.90;97.40
20911;DHT22;10615;42.702;23.314;2023-02-15T05:11:26;3.90;97.30
20911;DHT22;10615;42.702;23.314;2023-02-15T05:12:27;3.90;97.30
20911;DHT22;10615;42.702;23.314;2023-02-15T05:13:28;3.90;97.30
20911;DHT22;10615;42.702;23.314;2023-02-15T05:14:29;3.90;97.30
20911;DHT22;10615;42.702;23.314;2023-02-15T05:15:30;3.90;97.30
20911;DHT22;10615;42.702;23.314;2023-02-15T05:16:30;3.90;97.30
20911;DHT22;10615;42.702;23.314;2023-02-15T05:17:31;3.90;97.30
20911;DHT22;10615;42.702;23.314;2023-02-15T05:18:32;3.90;97.30
20911;DHT22;10615;42.702;23.314;2023-02-15T05:19:33;3.90;97.40
20911;DHT22;10615;42.702;23.314;2023-02-15T05:21:53;4.00;97.50
20911;DHT22;10615;42.702;23.314;2023-02-15T05:22:54;4.00;97.40
20911;DHT22;10615;42.702;23.314;2023-02-15T05:23:55;4.00;97.40
20911;DHT22;10615;42.702;23.314;2023-02-15T05:24:55;4.00;97.40
20911;DHT22;10615;42.702;23.314;2023-02-15T05:26:19;4.00;97.40
20911;DHT22;10615;42.702;23.314;2023-02-15T05:27:38;4.00;97.40
20911;DHT22;10615;42.702;23.314;2023-02-15T05:28:58;4.00;97.40
20911;DHT22;10615;42.702;23.314;2023-02-15T05:29:58;4.00;97.40
20911;DHT22;10615;42.702;23.314;2023-02-15T05:32:13;4.10;97.50
20911;DHT22;10615;42.702;23.314;2023-02-15T05:33:14;4.10;97.40
20911;DHT22;10615;42.702;23.314;2023-02-15T05:34:15;4.10;97.30
20911;DHT22;10615;42.702;23.314;2023-02-15T05:35:16;4.10;97.20
20911;DHT22;10615;42.702;23.314;2023-02-15T05:36:17;4.10;97.20
20911;DHT22;10615;42.702;23.314;2023-02-15T05:37:18;4.10;97.20
20911;DHT22;10615;42.702;23.314;2023-02-15T05:38:18;4.10;97.20
20911;DHT22;10615;42.702;23.314;2023-02-15T05:39:19;4.10;97.10
20911;DHT22;10615;42.702;23.314;2023-02-15T05:40:20;4.10;97.00
20911;DHT22;10615;42.702;23.314;2023-02-15T05:41:20;4.10;97.00
20911;DHT22;10615;42.702;23.314;2023-02-15T05:42:21;4.10;97.00
20911;DHT22;10615;42.702;23.314;2023-02-15T05:43:22;4.10;97.00
20911;DHT22;10615;42.702;23.314;2023-02-15T05:44:23;4.10;97.00
20911;DHT22;10615;42.702;23.314;2023-02-15T05:45:24;4.10;97.40
20911;DHT22;10615;42.702;23.314;2023-02-15T05:46:25;4.10;96.90
20911;DHT22;10615;42.702;23.314;2023-02-15T05:47:26;4.20;97.00
20911;DHT22;10615;42.702;23.314;2023-02-15T05:48:27;4.20;97.00
20911;DHT22;10615;42.702;23.314;2023-02-15T05:49:28;4.20;97.00
20911;DHT22;10615;42.702;23.314;2023-02-15T05:50:29;4.30;97.00
20911;DHT22;10615;42.702;23.314;2023-02-15T05:51:29;4.30;96.90
20911;DHT22;10615;42.702;23.314;2023-02-15T05:52:30;4.30;96.80
20911;DHT22;10615;42.702;23.314;2023-02-15T05:53:33;4.30;96.60
20911;DHT22;10615;42.702;23.314;2023-02-15T05:54:34;4.30;96.50
20911;DHT22;10615;42.702;23.314;2023-02-15T05:55:37;4.30;96.40
20911;DHT22;10615;42.702;23.314;2023-02-15T05:56:38;4.30;96.30
20911;DHT22;10615;42.702;23.314;2023-02-15T05:57:39;4.30;96.20
20911;DHT22;10615;42.702;23.314;2023-02-15T05:58:42;4.30;96.20
20911;DHT22;10615;42.702;23.314;2023-02-15T05:59:43;4.30;96.10
20911;DHT22;10615;42.702;23.314;2023-02-15T06:00:44;4.30;96.10
20911;DHT22;10615;42.702;23.314;2023-02-15T06:01:44;4.30;96.10
20911;DHT22;10615;42.702;23.314;2023-02-15T06:02:45;4.30;96.00
20911;DHT22;10615;42.702;23.314;2023-02-15T06:03:45;4.30;96.00
20911;DHT22;10615;42.702;23.314;2023-02-15T06:04:46;4.30;96.00
20911;DHT22;10615;42.702;23.314;2023-02-15T06:05:47;4.30;96.00
20911;DHT22;10615;42.702;23.314;2023-02-15T06:06:47;4.30;95.90
20911;DHT22;10615;42.702;23.314;2023-02-15T06:07:48;4.30;95.80
20911;DHT22;10615;42.702;23.314;2023-02-15T06:08:49;4.30;95.80
20911;DHT22;10615;42.702;23.314;2023-02-15T06:09:49;4.30;95.80
20911;DHT22;10615;42.702;23.314;2023-02-15T06:10:50;4.30;96.00
20911;DHT22;10615;42.702;23.314;2023-02-15T06:11:51;4.30;96.00
20911;DHT22;10615;42.702;23.314;2023-02-15T06:12:51;4.30;96.00
20911;DHT22;10615;42.702;23.314;2023-02-15T06:13:52;4.40;96.10
20911;DHT22;10615;42.702;23.314;2023-02-15T06:14:53;4.40;96.10
20911;DHT22;10615;42.702;23.314;2023-02-15T06:15:53;4.40;96.10
20911;DHT22;10615;42.702;23.314;2023-02-15T06:16:54;4.40;96.10
20911;DHT22;10615;42.702;23.314;2023-02-15T06:17:55;4.40;96.00
20911;DHT22;10615;42.702;23.314;2023-02-15T06:18:55;4.50;95.90
20911;DHT22;10615;42.702;23.314;2023-02-15T06:19:56;4.50;95.80
20911;DHT22;10615;42.702;23.314;2023-02-15T06:20:57;4.50;95.80
20911;DHT22;10615;42.702;23.314;2023-02-15T06:21:57;4.50;95.60
20911;DHT22;10615;42.702;23.314;2023-02-15T06:22:58;4.50;95.60
20911;DHT22;10615;42.702;23.314;2023-02-15T06:23:59;4.50;95.50
20911;DHT22;10615;42.702;23.314;2023-02-15T06:24:59;4.50;95.50
20911;DHT22;10615;42.702;23.314;2023-02-15T06:26:00;4.60;95.50
20911;DHT22;10615;42.702;23.314;2023-02-15T06:27:01;4.60;95.40
20911;DHT22;10615;42.702;23.314;2023-02-15T06:28:02;4.60;95.40
20911;DHT22;10615;42.702;23.314;2023-02-15T06:29:02;4.60;95.20
20911;DHT22;10615;42.702;23.314;2023-02-15T06:30:07;4.60;95.10
20911;DHT22;10615;42.702;23.314;2023-02-15T06:31:08;4.60;95.00
20911;DHT22;10615;42.702;23.314;2023-02-15T06:32:08;4.60;94.90
20911;DHT22;10615;42.702;23.314;2023-02-15T06:33:09;4.60;94.90
20911;DHT22;10615;42.702;23.314;2023-02-15T06:34:09;4.60;94.80
20911;DHT22;10615;42.702;23.314;2023-02-15T06:35:10;4.60;94.80
20911;DHT22;10615;42.702;23.314;2023-02-15T06:36:11;4.60;94.80
20911;DHT22;10615;42.702;23.314;2023-02-15T06:37:12;4.60;94.80
20911;DHT22;10615;42.702;23.314;2023-02-15T06:38:13;4.60;94.80
20911;DHT22;10615;42.702;23.314;2023-02-15T06:39:14;4.60;94.80
20911;DHT22;10615;42.702;23.314;2023-02-15T06:40:15;4.60;94.80
20911;DHT22;10615;42.702;23.314;2023-02-15T06:41:15;4.70;94.80
20911;DHT22;10615;42.702;23.314;2023-02-15T06:42:16;4.70;94.70
20911;DHT22;10615;42.702;23.314;2023-02-15T06:43:18;4.70;94.70
20911;DHT22;10615;42.702;23.314;2023-02-15T06:44:19;4.70;94.60
20911;DHT22;10615;42.702;23.314;2023-02-15T06:45:19;4.70;94.60
20911;DHT22;10615;42.702;23.314;2023-02-15T06:46:20;4.70;94.60
20911;DHT22;10615;42.702;23.314;2023-02-15T06:47:21;4.70;94.50
20911;DHT22;10615;42.702;23.314;2023-02-15T06:48:21;4.70;94.30
20911;DHT22;10615;42.702;23.314;2023-02-15T06:49:22;4.70;94.20
20911;DHT22;10615;42.702;23.314;2023-02-15T06:50:22;4.70;94.20
20911;DHT22;10615;42.702;23.314;2023-02-15T06:51:23;4.70;94.20
20911;DHT22;10615;42.702;23.314;2023-02-15T06:52:24;4.80;94.20
20911;DHT22;10615;42.702;23.314;2023-02-15T06:53:25;4.70;94.10
20911;DHT22;10615;42.702;23.314;2023-02-15T06:54:26;4.70;94.10
20911;DHT22;10615;42.702;23.314;2023-02-15T06:55:26;4.70;94.20
20911;DHT22;10615;42.702;23.314;2023-02-15T06:56:27;4.70;94.20
20911;DHT22;10615;42.702;23.314;2023-02-15T06:58:47;4.80;94.10
20911;DHT22;10615;42.702;23.314;2023-02-15T06:59:49;4.80;94.00
20911;DHT22;10615;42.702;23.314;2023-02-15T07:00:51;4.90;94.00
20911;DHT22;10615;42.702;23.314;2023-02-15T07:01:52;4.90;94.00
20911;DHT22;10615;42.702;23.314;2023-02-15T07:02:56;4.90;93.90
20911;DHT22;10615;42.702;23.314;2023-02-15T07:03:58;5.00;93.80
20911;DHT22;10615;42.702;23.314;2023-02-15T07:04:58;5.00;93.70
20911;DHT22;10615;42.702;23.314;2023-02-15T07:06:01;5.00;93.50
20911;DHT22;10615;42.702;23.314;2023-02-15T07:07:03;5.00;93.40
20911;DHT22;10615;42.702;23.314;2023-02-15T07:08:03;5.00;93.30
20911;DHT22;10615;42.702;23.314;2023-02-15T07:09:04;5.00;93.20
20911;DHT22;10615;42.702;23.314;2023-02-15T07:10:05;5.00;93.20
20911;DHT22;10615;42.702;23.314;2023-02-15T07:11:07;5.10;93.20
20911;DHT22;10615;42.702;23.314;2023-02-15T07:12:26;5.10;93.10
20911;DHT22;10615;42.702;23.314;2023-02-15T07:13:42;5.10;93.00
20911;DHT22;10615;42.702;23.314;2023-02-15T07:14:43;5.10;92.90
20911;DHT22;10615;42.702;23.314;2023-02-15T07:15:44;5.20;93.20